createdAt,value
2019-03-30T00:03:01.759Z,5.87
2019-03-30T00:07:06.239Z,6.28
2019-03-30T00:11:09.991Z,7.37
2019-03-30T00:15:13.748Z,7.28
2019-03-30T00:19:17.366Z,7.55
2019-03-30T00:23:20.946Z,7.67
2019-03-30T00:27:24.486Z,7.80
2019-03-30T00:31:28.118Z,6.72
2019-03-30T00:35:32.148Z,7.80
2019-03-30T00:39:35.745Z,7.03
2019-03-30T00:43:39.355Z,8.53
2019-03-30T00:47:42.966Z,8.45
2019-03-30T00:51:47.216Z,7.78
2019-03-30T00:55:51.161Z,8.38
2019-03-30T00:59:55.281Z,9.43
2019-03-30T01:03:58.956Z,8.40
2019-03-30T01:08:02.884Z,9.18
2019-03-30T01:12:06.596Z,9.03
2019-03-30T01:16:10.666Z,8.40
2019-03-30T01:20:14.742Z,10.17
2019-03-30T01:24:18.816Z,14.17
2019-03-30T01:28:22.381Z,9.50
2019-03-30T01:32:25.994Z,9.23
2019-03-30T01:36:32.115Z,8.68
2019-03-30T01:40:36.321Z,10.40
2019-03-30T01:44:41.517Z,10.55
2019-03-30T01:48:45.163Z,10.23
2019-03-30T01:52:49.235Z,9.50
2019-03-30T01:56:52.795Z,11.63
2019-03-30T02:00:56.634Z,11.43
2019-03-30T02:05:00.391Z,11.18
2019-03-30T02:09:05.209Z,12.20
2019-03-30T02:13:08.889Z,13.04
2019-03-30T02:17:12.604Z,13.68
2019-03-30T02:21:16.322Z,13.25
2019-03-30T02:25:19.937Z,12.58
2019-03-30T02:29:23.548Z,8.30
2019-03-30T02:33:27.175Z,8.45
2019-03-30T02:37:30.776Z,10.65
2019-03-30T02:41:34.393Z,12.35
2019-03-30T02:45:38.007Z,13.08
2019-03-30T02:49:41.636Z,6.75
2019-03-30T02:53:45.232Z,7.62
2019-03-30T02:57:48.777Z,10.70
2019-03-30T03:01:52.456Z,12.60
2019-03-30T03:05:56.072Z,10.10
2019-03-30T03:09:59.696Z,12.30
2019-03-30T03:14:03.304Z,11.28
2019-03-30T03:18:07.034Z,12.53
2019-03-30T03:22:10.575Z,12.07
2019-03-30T03:26:14.246Z,9.53
2019-03-30T03:30:18.282Z,9.53
2019-03-30T03:34:21.880Z,9.43
2019-03-30T03:38:25.495Z,10.03
2019-03-30T03:42:29.110Z,11.55
2019-03-30T03:46:32.832Z,10.10
2019-03-30T03:50:46.884Z,9.20
2019-03-30T03:54:51.218Z,10.45
2019-03-30T03:58:56.973Z,8.25
2019-03-30T04:03:03.367Z,9.40
2019-03-30T04:07:08.931Z,9.53
2019-03-30T04:11:14.694Z,11.18
2019-03-30T04:15:25.359Z,8.33
2019-03-30T04:19:29.095Z,8.33
2019-03-30T04:23:32.690Z,9.18
2019-03-30T04:27:36.617Z,9.23
2019-03-30T04:31:40.223Z,9.48
2019-03-30T04:35:43.840Z,11.53
2019-03-30T04:39:47.461Z,13.75
2019-03-30T04:43:53.733Z,17.65
2019-03-30T04:47:57.342Z,18.37
2019-03-30T04:52:00.953Z,20.72
2019-03-30T04:56:04.978Z,17.95
2019-03-30T05:00:09.002Z,18.32
2019-03-30T05:04:12.617Z,20.17
2019-03-30T05:08:16.230Z,19.70
2019-03-30T05:12:19.843Z,20.97
2019-03-30T05:16:23.455Z,16.87
2019-03-30T05:20:27.069Z,23.57
2019-03-30T05:24:30.688Z,22.15
2019-03-30T05:28:34.398Z,20.10
2019-03-30T05:32:41.393Z,22.48
2019-03-30T05:36:43.435Z,20.30
2019-03-30T05:40:46.981Z,22.52
2019-03-30T05:44:50.595Z,22.40
2019-03-30T05:48:54.622Z,21.87
2019-03-30T05:52:58.238Z,22.58
2019-03-30T05:57:03.515Z,22.27
2019-03-30T06:01:07.597Z,23.50
2019-03-30T06:05:11.184Z,22.75
2019-03-30T06:09:14.768Z,21.56
2019-03-30T06:13:19.151Z,22.60
2019-03-30T06:17:22.724Z,22.80
2019-03-30T06:21:26.611Z,23.02
2019-03-30T06:25:30.224Z,22.64
2019-03-30T06:29:33.928Z,21.30
2019-03-30T06:33:37.953Z,22.02
2019-03-30T06:37:41.575Z,19.70
2019-03-30T06:41:45.146Z,18.82
2019-03-30T06:45:48.811Z,20.45
2019-03-30T06:49:52.413Z,19.37
2019-03-30T06:53:56.022Z,19.35
2019-03-30T06:57:59.726Z,16.65
2019-03-30T07:02:03.455Z,17.73
2019-03-30T07:06:08.176Z,19.25
2019-03-30T07:10:11.910Z,18.32
2019-03-30T07:14:18.703Z,16.97
2019-03-30T07:18:22.414Z,18.98
2019-03-30T07:22:29.106Z,18.10
2019-03-30T07:26:32.962Z,16.67
2019-03-30T07:30:36.639Z,16.80
2019-03-30T07:34:41.798Z,17.60
2019-03-30T07:38:46.041Z,18.80
2019-03-30T07:42:49.623Z,18.67
2019-03-30T07:46:53.243Z,19.35
2019-03-30T07:50:56.854Z,19.20
2019-03-30T07:55:00.442Z,18.98
2019-03-30T07:59:04.204Z,15.83
2019-03-30T08:03:07.907Z,16.90
2019-03-30T08:07:11.620Z,16.60
2019-03-30T08:11:15.235Z,15.60
2019-03-30T08:15:18.946Z,15.68
2019-03-30T08:19:22.673Z,15.85
2019-03-30T08:23:39.509Z,15.25
2019-03-30T08:27:31.625Z,14.58
2019-03-30T08:31:35.247Z,15.55
2019-03-30T08:35:38.856Z,14.63
2019-03-30T08:39:42.582Z,13.78
2019-03-30T08:43:46.190Z,14.75
2019-03-30T08:47:49.803Z,14.18
2019-03-30T08:51:53.417Z,14.20
2019-03-30T08:55:57.030Z,13.68
2019-03-30T09:00:00.767Z,13.78
2019-03-30T09:04:04.467Z,13.58
2019-03-30T09:08:08.077Z,14.03
2019-03-30T09:12:11.696Z,13.53
2019-03-30T09:16:15.411Z,12.47
2019-03-30T09:20:19.123Z,12.77
2019-03-30T09:24:22.737Z,12.30
2019-03-30T09:28:26.458Z,11.50
2019-03-30T09:32:30.070Z,12.37
2019-03-30T09:36:33.937Z,10.95
2019-03-30T09:40:37.609Z,10.40
2019-03-30T09:44:41.227Z,10.13
2019-03-30T09:48:44.835Z,9.45
2019-03-30T09:52:48.449Z,9.10
2019-03-30T09:56:52.061Z,9.25
2019-03-30T10:00:55.780Z,9.55
2019-03-30T10:04:59.392Z,9.23
2019-03-30T10:09:03.619Z,8.63
2019-03-30T10:13:07.236Z,9.45
2019-03-30T10:17:10.847Z,8.83
2019-03-30T10:21:14.438Z,8.48
2019-03-30T10:25:18.025Z,7.72
2019-03-30T10:29:21.906Z,8.50
2019-03-30T10:33:25.509Z,8.63
2019-03-30T10:37:29.122Z,8.25
2019-03-30T10:41:32.749Z,8.80
2019-03-30T10:45:36.453Z,8.80
2019-03-30T10:49:40.033Z,9.35
2019-03-30T10:53:43.684Z,9.35
2019-03-30T10:57:47.300Z,9.73
2019-03-30T11:01:50.920Z,9.03
2019-03-30T11:05:54.524Z,9.15
2019-03-30T11:09:58.141Z,10.38
2019-03-30T11:14:01.754Z,10.95
2019-03-30T11:18:05.673Z,10.23
2019-03-30T11:22:09.287Z,11.50
2019-03-30T11:26:13.084Z,11.18
2019-03-30T11:30:16.846Z,11.78
2019-03-30T11:34:20.442Z,11.63
2019-03-30T11:38:23.985Z,11.22
2019-03-30T11:42:27.565Z,11.75
2019-03-30T11:46:31.180Z,13.60
2019-03-30T11:50:34.862Z,11.25
2019-03-30T11:54:38.509Z,12.37
2019-03-30T11:58:42.127Z,11.40
2019-03-30T12:02:45.738Z,11.60
2019-03-30T12:06:51.858Z,12.28
2019-03-30T12:10:54.814Z,12.03
2019-03-30T12:14:58.373Z,11.18
2019-03-30T12:19:10.950Z,12.13
2019-03-30T12:23:14.503Z,12.45
2019-03-30T12:27:18.072Z,11.78
2019-03-30T12:31:21.650Z,11.30
2019-03-30T12:35:25.405Z,10.13
2019-03-30T12:39:29.020Z,9.53
2019-03-30T12:43:32.630Z,10.03
2019-03-30T12:47:36.355Z,9.68
2019-03-30T12:51:39.916Z,9.93
2019-03-30T12:55:49.611Z,9.40
2019-03-30T12:59:49.032Z,9.75
2019-03-30T13:03:52.646Z,10.50
2019-03-30T13:07:56.264Z,10.30
2019-03-30T13:11:59.948Z,10.35
2019-03-30T13:16:03.693Z,8.80
2019-03-30T13:20:07.526Z,9.33
2019-03-30T13:24:11.127Z,9.37
2019-03-30T13:28:14.748Z,9.23
2019-03-30T13:32:18.355Z,9.23
2019-03-30T13:36:23.609Z,9.43
2019-03-30T13:40:27.325Z,10.10
2019-03-30T13:44:30.938Z,8.33
2019-03-30T13:48:34.553Z,9.43
2019-03-30T13:52:38.167Z,9.95
2019-03-30T13:56:41.983Z,9.05
2019-03-30T14:00:45.701Z,8.98
2019-03-30T14:04:52.258Z,8.33
2019-03-30T14:08:54.874Z,8.80
2019-03-30T14:12:58.489Z,8.65
2019-03-30T14:17:02.104Z,8.33
2019-03-30T14:21:05.927Z,9.20
2019-03-30T14:25:09.639Z,9.45
2019-03-30T14:29:13.263Z,8.78
2019-03-30T14:33:16.969Z,9.35
2019-03-30T14:37:20.585Z,8.53
2019-03-30T14:41:24.199Z,8.85
2019-03-30T14:45:27.810Z,9.68
2019-03-30T14:49:31.528Z,9.00
2019-03-30T14:53:35.078Z,8.50
2019-03-30T14:57:38.757Z,8.70
2019-03-30T15:01:42.474Z,8.70
2019-03-30T15:05:46.293Z,9.03
2019-03-30T15:09:49.909Z,8.75
2019-03-30T15:13:53.521Z,9.70
2019-03-30T15:17:57.151Z,11.00
2019-03-30T15:22:00.748Z,9.93
2019-03-30T15:26:04.479Z,9.75
2019-03-30T15:30:09.261Z,10.23
2019-03-30T15:34:12.921Z,10.08
2019-03-30T15:38:16.536Z,10.48
2019-03-30T15:42:20.112Z,9.95
2019-03-30T15:46:23.767Z,10.60
2019-03-30T15:50:27.490Z,9.98
2019-03-30T15:54:31.071Z,9.03
2019-03-30T15:58:34.711Z,10.10
2019-03-30T16:02:38.532Z,10.30
2019-03-30T16:06:42.140Z,9.05
2019-03-30T16:10:45.686Z,9.90
2019-03-30T16:14:49.267Z,9.15
2019-03-30T16:18:52.984Z,10.18
2019-03-30T16:22:56.702Z,9.98
2019-03-30T16:27:00.319Z,10.40
2019-03-30T16:31:04.036Z,10.00
2019-03-30T16:35:07.851Z,10.05
2019-03-30T16:39:11.465Z,9.80
2019-03-30T16:43:15.028Z,11.33
2019-03-30T16:47:18.694Z,11.30
2019-03-30T16:51:22.308Z,11.78
2019-03-30T16:55:25.920Z,12.73
2019-03-30T16:59:29.489Z,11.73
2019-03-30T17:03:33.149Z,12.60
2019-03-30T17:07:36.863Z,13.70
2019-03-30T17:11:40.460Z,13.78
2019-03-30T17:15:44.105Z,13.25
2019-03-30T17:19:47.708Z,13.85
2019-03-30T17:23:51.280Z,14.10
2019-03-30T17:27:58.647Z,15.23
2019-03-30T17:32:00.185Z,13.68
2019-03-30T17:36:03.909Z,13.83
2019-03-30T17:40:10.901Z,14.55
2019-03-30T17:44:14.493Z,15.50
2019-03-30T17:48:18.125Z,15.00
2019-03-30T17:52:21.685Z,14.85
2019-03-30T17:56:25.250Z,15.98
2019-03-30T18:00:28.864Z,16.02
2019-03-30T18:04:32.477Z,15.45
2019-03-30T18:08:36.138Z,16.02
2019-03-30T18:12:39.714Z,16.57
2019-03-30T18:16:43.267Z,17.82
2019-03-30T18:20:46.830Z,16.82
2019-03-30T18:24:50.446Z,16.65
2019-03-30T18:28:54.062Z,17.07
2019-03-30T18:32:57.881Z,16.95
2019-03-30T18:37:01.700Z,15.85
2019-03-30T18:41:05.420Z,15.78
2019-03-30T18:45:11.076Z,15.72
2019-03-30T18:49:14.718Z,15.63
2019-03-30T18:53:19.170Z,16.45
2019-03-30T18:57:22.845Z,16.77
2019-03-30T19:01:26.471Z,16.10
2019-03-30T19:05:30.170Z,14.07
2019-03-30T19:09:33.887Z,14.43
2019-03-30T19:13:37.509Z,13.53
2019-03-30T19:17:41.132Z,14.75
2019-03-30T19:21:44.935Z,14.95
2019-03-30T19:25:48.630Z,13.62
2019-03-30T19:29:52.268Z,15.63
2019-03-30T19:33:55.878Z,17.70
2019-03-30T19:37:59.423Z,16.23
2019-03-30T19:42:04.523Z,17.45
2019-03-30T19:46:08.259Z,18.57
2019-03-30T19:50:12.169Z,23.40
2019-03-30T19:54:15.798Z,25.45
2019-03-30T19:58:19.373Z,25.12
2019-03-30T20:02:23.025Z,29.18
2019-03-30T20:06:26.634Z,28.60
2019-03-30T20:10:30.350Z,29.37
2019-03-30T20:14:34.035Z,29.98
2019-03-30T20:18:37.680Z,31.82
2019-03-30T20:22:41.292Z,33.75
2019-03-30T20:26:44.871Z,36.40
2019-03-30T20:30:48.519Z,38.42
2019-03-30T20:34:52.144Z,37.73
2019-03-30T20:38:55.752Z,41.37
2019-03-30T20:42:59.363Z,38.70
2019-03-30T20:47:02.976Z,39.48
2019-03-30T20:51:06.898Z,40.67
2019-03-30T20:55:10.858Z,40.38
2019-03-30T20:59:14.459Z,41.58
2019-03-30T21:03:18.457Z,43.65
2019-03-30T21:07:22.016Z,42.17
2019-03-30T21:11:25.728Z,42.40
2019-03-30T21:15:29.300Z,42.50
2019-03-30T21:19:32.916Z,41.83
2019-03-30T21:23:36.492Z,44.42
2019-03-30T21:27:40.998Z,42.67
2019-03-30T21:31:44.581Z,43.83
2019-03-30T21:35:48.185Z,42.78
2019-03-30T21:39:51.805Z,41.15
2019-03-30T21:43:55.413Z,43.95
2019-03-30T21:47:59.043Z,43.92
2019-03-30T21:52:02.745Z,47.45
2019-03-30T21:56:06.359Z,46.35
2019-03-30T22:00:11.572Z,46.13
2019-03-30T22:04:15.538Z,49.43
2019-03-30T22:08:19.350Z,48.93
2019-03-30T22:12:22.964Z,50.55
2019-03-30T22:16:26.577Z,48.85
2019-03-30T22:20:30.298Z,50.98
2019-03-30T22:24:33.908Z,53.85
2019-03-30T22:28:37.522Z,50.78
2019-03-30T22:32:41.093Z,52.65
2019-03-30T22:36:44.751Z,52.50
2019-03-30T22:40:48.364Z,51.25
2019-03-30T22:44:51.980Z,48.60
2019-03-30T22:48:55.542Z,50.10
2019-03-30T22:52:59.217Z,47.03
2019-03-30T22:57:02.828Z,46.13
2019-03-30T23:01:08.179Z,47.23
2019-03-30T23:05:12.001Z,45.55
2019-03-30T23:09:15.553Z,47.73
2019-03-30T23:13:19.128Z,47.70
2019-03-30T23:17:22.836Z,48.35
2019-03-30T23:21:26.553Z,47.05
2019-03-30T23:25:30.166Z,45.35
2019-03-30T23:29:33.778Z,47.48
2019-03-30T23:33:37.397Z,44.90
2019-03-30T23:37:40.983Z,45.10
2019-03-30T23:41:44.620Z,46.33
2019-03-30T23:45:48.238Z,46.70
2019-03-30T23:49:51.952Z,46.77
2019-03-30T23:53:55.567Z,47.43
2019-03-30T23:57:59.180Z,48.73
